Time;durP1;ratioP1;P1;durP2;ratioP2;P2;SDS_P1;SDS_P2;PMS_P1;PMS_P2;Temp;Humidity;BMP_temperature;BMP_pressure;BME280_temperature;BME280_humidity;BME280_pressure;Samples;Min_cycle;Max_cycle;Signal;HPM_P1;HPM_P2
2022/11/29 00:00:16;;;;;;;;;;;3.20;76.00;;;;;;5044749;28;87306;-39
2022/11/29 00:02:42;;;;;;;;;;;3.10;76.10;;;;;;5044688;28;89209;-39
2022/11/29 00:05:07;;;;;;;;;;;3.10;75.90;;;;;;5044806;28;87941;-39
2022/11/29 00:07:33;;;;;;;;;;;3.10;75.90;;;;;;5044944;28;87130;-39
2022/11/29 00:09:58;;;;;;;;;;;3.10;76.20;;;;;;5044547;27;87655;-39
2022/11/29 00:12:24;;;;;;;;;;;3.20;76.20;;;;;;5044209;28;89373;-39
2022/11/29 00:14:49;;;;;;;;;;;3.10;76.00;;;;;;5048206;28;86386;-39
2022/11/29 00:17:15;;;;;;;;;;;3.10;76.20;;;;;;5044323;28;87791;-39
2022/11/29 00:19:40;;;;;;;;;;;3.10;75.90;;;;;;5044346;28;87150;-39
2022/11/29 00:22:06;;;;;;;;;;;3.10;76.00;;;;;;5044037;28;87959;-39
2022/11/29 00:24:31;;;;;;;;;;;3.10;76.00;;;;;;5042937;27;88246;-39
2022/11/29 00:26:57;;;;;;;;;;;3.10;76.00;;;;;;5044335;28;86997;-39
2022/11/29 00:29:22;;;;;;;;;;;3.10;76.00;;;;;;5044503;27;87499;-39
2022/11/29 00:31:48;;;;;;;;;;;3.10;76.10;;;;;;5044187;28;88103;-39
2022/11/29 00:34:13;;;;;;;;;;;3.10;76.00;;;;;;5044533;28;87140;-39
2022/11/29 00:36:39;;;;;;;;;;;3.10;76.20;;;;;;5047202;28;87348;-39
2022/11/29 00:39:05;;;;;;;;;;;3.10;76.00;;;;;;5044664;28;86445;-39
2022/11/29 00:41:31;;;;;;;;;;;3.10;76.00;;;;;;5044367;28;87001;-39
2022/11/29 00:43:56;;;;;;;;;;;3.10;76.00;;;;;;5043957;28;88021;-39
2022/11/29 00:46:22;;;;;;;;;;;3.10;76.00;;;;;;5043360;28;87984;-39
2022/11/29 00:48:48;;;;;;;;;;;3.10;76.10;;;;;;5042650;28;91128;-39
2022/11/29 00:51:13;;;;;;;;;;;3.00;76.20;;;;;;5043678;28;88000;-39
2022/11/29 00:53:39;;;;;;;;;;;3.10;76.20;;;;;;5044122;28;87661;-39
2022/11/29 00:56:05;;;;;;;;;;;3.10;75.90;;;;;;5046424;28;87074;-39
2022/11/29 00:58:30;;;;;;;;;;;3.10;76.20;;;;;;5043858;28;87818;-39
2022/11/29 01:00:56;;;;;;;;;;;3.10;76.20;;;;;;5043854;28;86945;-39
2022/11/29 01:03:22;;;;;;;;;;;3.10;76.20;;;;;;5044143;28;87447;-39
2022/11/29 01:05:48;;;;;;;;;;;3.00;76.20;;;;;;5044084;28;87102;-39
2022/11/29 01:08:14;;;;;;;;;;;3.10;76.20;;;;;;5044094;28;87256;-39
2022/11/29 01:10:39;;;;;;;;;;;3.00;76.20;;;;;;5042559;28;88845;-39
2022/11/29 01:13:05;;;;;;;;;;;3.10;76.00;;;;;;5043597;28;87110;-39
2022/11/29 01:15:31;;;;;;;;;;;3.10;76.10;;;;;;5043714;27;87368;-39
2022/11/29 01:17:57;;;;;;;;;;;3.00;76.20;;;;;;5046486;28;88267;-39
2022/11/29 01:20:22;;;;;;;;;;;3.00;76.10;;;;;;5043698;28;87211;-39
2022/11/29 01:22:48;;;;;;;;;;;3.00;76.70;;;;;;5043311;28;88373;-39
2022/11/29 01:25:14;;;;;;;;;;;3.00;76.20;;;;;;5043313;28;87143;-39
2022/11/29 01:27:40;;;;;;;;;;;3.00;76.20;;;;;;5043923;27;88602;-39
2022/11/29 01:30:06;;;;;;;;;;;3.00;76.10;;;;;;5043281;28;88108;-39
2022/11/29 01:32:31;;;;;;;;;;;3.00;76.10;;;;;;5043277;28;86960;-39
2022/11/29 01:34:57;;;;;;;;;;;3.00;76.20;;;;;;5042667;28;87848;-39
2022/11/29 01:37:23;;;;;;;;;;;3.00;76.20;;;;;;5043381;28;88017;-39
2022/11/29 01:39:48;;;;;;;;;;;3.00;76.20;;;;;;5046231;28;87173;-39
2022/11/29 01:42:14;;;;;;;;;;;3.00;76.20;;;;;;5042870;28;89307;-39
2022/11/29 01:44:45;;;;;;;;;;;3.00;76.10;;;;;;5042716;28;87301;-39
2022/11/29 01:47:11;;;;;;;;;;;3.00;76.20;;;;;;5043516;27;87377;-39
2022/11/29 01:49:39;;;;;;;;;;;3.00;76.20;;;;;;5042820;28;88049;-39
2022/11/29 01:52:07;;;;;;;;;;;3.00;76.20;;;;;;5043654;28;86396;-39
2022/11/29 01:54:34;;;;;;;;;;;3.00;76.20;;;;;;5043140;27;87126;-39
2022/11/29 01:57:01;;;;;;;;;;;3.00;76.20;;;;;;5042716;28;87968;-39
2022/11/29 01:59:28;;;;;;;;;;;3.00;76.20;;;;;;5042528;28;88071;-39
2022/11/29 02:01:59;;;;;;;;;;;3.00;76.20;;;;;;5045607;27;88664;-39
2022/11/29 02:04:25;;;;;;;;;;;3.00;76.20;;;;;;5043040;28;86989;-39
2022/11/29 02:06:50;;;;;;;;;;;3.00;76.20;;;;;;5043038;28;87351;-39
2022/11/29 02:09:19;;;;;;;;;;;3.00;76.20;;;;;;5042559;28;88151;-39
2022/11/29 02:11:54;;;;;;;;;;;3.00;76.20;;;;;;5042738;28;87208;-39
2022/11/29 02:14:19;;;;;;;;;;;3.00;76.20;;;;;;5043017;27;87232;-39
2022/11/29 02:16:52;;;;;;;;;;;3.00;76.20;;;;;;5043073;28;87258;-39
2022/11/29 02:19:29;;;;;;;;;;;3.00;76.20;;;;;;5043054;28;86842;-39
2022/11/29 02:21:58;;;;;;;;;;;3.00;76.20;;;;;;5042812;27;87337;-39
2022/11/29 02:24:30;;;;;;;;;;;3.00;76.20;;;;;;5044548;28;88601;-39
2022/11/29 02:27:15;;;;;;;;;;;3.00;76.20;;;;;;5042767;28;88650;-39
2022/11/29 02:29:56;;;;;;;;;;;3.00;76.20;;;;;;5042418;28;88070;-39
2022/11/29 02:32:40;;;;;;;;;;;2.90;76.50;;;;;;5042254;28;87122;-39
2022/11/29 02:35:11;;;;;;;;;;;2.90;76.40;;;;;;5042802;28;87464;-39
2022/11/29 02:37:55;;;;;;;;;;;2.90;76.10;;;;;;5042042;28;88497;-39
2022/11/29 02:40:26;;;;;;;;;;;2.90;76.40;;;;;;5042543;27;87167;-39
2022/11/29 02:43:20;;;;;;;;;;;2.90;76.30;;;;;;5042868;27;88565;-39
2022/11/29 02:45:45;;;;;;;;;;;2.90;76.20;;;;;;5041469;28;88987;-39
2022/11/29 02:48:21;;;;;;;;;;;2.90;76.40;;;;;;5047454;28;86998;-39
2022/11/29 02:50:49;;;;;;;;;;;2.90;76.60;;;;;;5045160;28;88074;-39
2022/11/29 02:53:15;;;;;;;;;;;2.90;76.30;;;;;;5045983;28;87097;-39
2022/11/29 02:55:40;;;;;;;;;;;2.90;76.10;;;;;;5046036;27;87436;-39
2022/11/29 02:58:21;;;;;;;;;;;2.90;76.10;;;;;;5045675;28;87892;-39
2022/11/29 03:00:56;;;;;;;;;;;2.90;76.20;;;;;;5045724;28;86916;-39
2022/11/29 03:03:34;;;;;;;;;;;2.90;76.10;;;;;;5045975;27;87383;-39
2022/11/29 03:06:35;;;;;;;;;;;2.80;76.20;;;;;;5045394;28;88242;-39
2022/11/29 03:09:01;;;;;;;;;;;2.90;76.20;;;;;;5006421;28;86263;-39
2022/11/29 03:11:38;;;;;;;;;;;2.90;76.30;;;;;;5035945;28;88436;-39
2022/11/29 03:14:13;;;;;;;;;;;2.90;76.30;;;;;;5045606;28;87599;-39
2022/11/29 03:16:57;;;;;;;;;;;2.90;76.30;;;;;;5044951;27;88820;-39
2022/11/29 03:19:25;;;;;;;;;;;2.90;76.30;;;;;;5045445;27;87976;-39
2022/11/29 03:21:55;;;;;;;;;;;2.90;76.30;;;;;;5045644;28;87096;-39
2022/11/29 03:24:41;;;;;;;;;;;2.90;76.30;;;;;;5044952;28;88727;-39
2022/11/29 03:27:11;;;;;;;;;;;2.90;76.30;;;;;;5036618;28;88010;-39
2022/11/29 03:29:49;;;;;;;;;;;2.90;76.20;;;;;;5045260;28;87032;-39
2022/11/29 03:32:24;;;;;;;;;;;2.90;76.40;;;;;;5047925;28;87632;-39
2022/11/29 03:35:08;;;;;;;;;;;2.90;76.30;;;;;;5045318;28;86309;-39
2022/11/29 03:37:54;;;;;;;;;;;2.80;76.40;;;;;;5045565;27;87382;-39
2022/11/29 03:40:29;;;;;;;;;;;2.80;77.00;;;;;;5044954;28;88127;-39
2022/11/29 03:43:09;;;;;;;;;;;2.90;76.50;;;;;;5044446;28;88152;-39
2022/11/29 03:45:42;;;;;;;;;;;2.90;76.30;;;;;;5044788;27;89277;-39
2022/11/29 03:48:07;;;;;;;;;;;2.90;76.30;;;;;;5044707;28;88053;-39
2022/11/29 03:50:36;;;;;;;;;;;2.80;76.30;;;;;;5044872;28;87085;-38
2022/11/29 03:53:06;;;;;;;;;;;2.80;76.40;;;;;;5045099;27;87345;-39
2022/11/29 03:55:52;;;;;;;;;;;2.80;76.40;;;;;;5047532;28;88358;-39
2022/11/29 03:58:18;;;;;;;;;;;2.80;76.60;;;;;;5044018;27;88700;-38
2022/11/29 04:00:46;;;;;;;;;;;2.90;76.30;;;;;;5044868;28;87395;-39
2022/11/29 04:03:17;;;;;;;;;;;2.80;76.40;;;;;;5045147;28;87167;-39
2022/11/29 04:05:49;;;;;;;;;;;2.80;76.20;;;;;;5044987;28;88120;-39
2022/11/29 04:08:26;;;;;;;;;;;2.80;76.40;;;;;;5043425;28;89067;-39
2022/11/29 04:11:04;;;;;;;;;;;2.80;76.30;;;;;;5044799;28;87371;-39
2022/11/29 04:13:36;;;;;;;;;;;2.80;76.50;;;;;;5044553;27;88795;-39
2022/11/29 04:16:16;;;;;;;;;;;2.80;76.60;;;;;;5044440;28;87789;-39
2022/11/29 04:19:00;;;;;;;;;;;2.80;76.30;;;;;;5047622;28;87226;-39
2022/11/29 04:21:30;;;;;;;;;;;2.80;76.50;;;;;;5044305;27;88085;-39
2022/11/29 04:24:14;;;;;;;;;;;2.80;76.40;;;;;;5044382;28;87627;-39
2022/11/29 04:26:39;;;;;;;;;;;2.80;76.40;;;;;;5045145;27;87379;-39
2022/11/29 04:29:22;;;;;;;;;;;2.80;76.50;;;;;;5044277;28;87962;-39
2022/11/29 04:31:51;;;;;;;;;;;2.80;76.50;;;;;;5044633;28;87047;-39
2022/11/29 04:34:16;;;;;;;;;;;2.80;76.50;;;;;;5043970;28;88019;-39
2022/11/29 04:36:51;;;;;;;;;;;2.80;76.60;;;;;;5044219;28;87854;-39
2022/11/29 04:39:19;;;;;;;;;;;2.80;76.50;;;;;;5044284;28;87120;-39
2022/11/29 04:41:55;;;;;;;;;;;2.70;76.50;;;;;;5046768;27;87352;-39
2022/11/29 04:44:20;;;;;;;;;;;2.80;76.50;;;;;;5044023;28;86822;-39
2022/11/29 04:46:49;;;;;;;;;;;2.80;76.50;;;;;;5044372;27;87142;-39
2022/11/29 04:49:14;;;;;;;;;;;2.80;76.50;;;;;;5044014;28;88396;-39
2022/11/29 04:51:47;;;;;;;;;;;2.80;76.40;;;;;;5044793;28;86416;-39
2022/11/29 04:54:12;;;;;;;;;;;2.80;76.50;;;;;;5043981;27;87557;-39
2022/11/29 04:56:53;;;;;;;;;;;2.80;76.50;;;;;;5043947;28;88087;-39
2022/11/29 04:59:45;;;;;;;;;;;2.80;76.40;;;;;;5043363;28;88068;-39
2022/11/29 05:02:11;;;;;;;;;;;2.70;76.40;;;;;;5029272;27;88618;-39
2022/11/29 05:04:55;;;;;;;;;;;2.80;76.60;;;;;;5044120;28;87180;-39
2022/11/29 05:07:39;;;;;;;;;;;2.80;76.50;;;;;;5043941;27;87298;-39
2022/11/29 05:10:04;;;;;;;;;;;2.80;76.50;;;;;;5042772;27;86980;-39
2022/11/29 05:12:33;;;;;;;;;;;2.80;76.50;;;;;;5043726;28;87108;-39
2022/11/29 05:15:09;;;;;;;;;;;2.80;76.60;;;;;;5043810;28;87421;-39
2022/11/29 05:17:54;;;;;;;;;;;2.70;76.60;;;;;;5044017;28;87279;-39
2022/11/29 05:20:19;;;;;;;;;;;2.80;76.70;;;;;;5043835;27;87033;-39
2022/11/29 05:22:52;;;;;;;;;;;2.80;76.50;;;;;;5043831;28;87032;-39
2022/11/29 05:25:21;;;;;;;;;;;2.70;76.80;;;;;;5045795;28;88932;-39
2022/11/29 05:27:55;;;;;;;;;;;2.70;76.60;;;;;;5043507;27;88292;-39
2022/11/29 05:30:22;;;;;;;;;;;2.70;76.50;;;;;;5043359;28;87980;-39
2022/11/29 05:33:06;;;;;;;;;;;2.70;76.40;;;;;;5043171;28;87576;-39
2022/11/29 05:35:50;;;;;;;;;;;2.70;76.60;;;;;;5043591;27;87263;-39
2022/11/29 05:38:24;;;;;;;;;;;2.70;76.60;;;;;;5042860;28;87242;-39
2022/11/29 05:41:01;;;;;;;;;;;2.70;76.60;;;;;;5043573;28;87030;-39
2022/11/29 05:43:45;;;;;;;;;;;2.80;76.40;;;;;;5044059;27;86726;-39
2022/11/29 05:46:11;;;;;;;;;;;2.70;76.40;;;;;;5042791;27;88127;-39
2022/11/29 05:48:55;;;;;;;;;;;2.70;76.50;;;;;;5045904;28;87087;-39
2022/11/29 05:51:50;;;;;;;;;;;2.70;76.80;;;;;;5042444;27;89032;-39
2022/11/29 05:54:15;;;;;;;;;;;2.60;76.90;;;;;;5004734;28;87032;-39
2022/11/29 05:56:56;;;;;;;;;;;2.60;76.80;;;;;;5043233;27;88668;-39
2022/11/29 05:59:26;;;;;;;;;;;2.70;76.70;;;;;;5042697;28;89579;-39
2022/11/29 06:01:52;;;;;;;;;;;2.70;76.60;;;;;;5042577;28;87352;-39
2022/11/29 06:04:20;;;;;;;;;;;2.70;76.60;;;;;;5043205;27;87016;-39
2022/11/29 06:06:54;;;;;;;;;;;2.60;76.80;;;;;;5042284;28;88147;-39
2022/11/29 06:09:26;;;;;;;;;;;2.70;76.80;;;;;;5043260;28;86422;-39
2022/11/29 06:11:56;;;;;;;;;;;2.70;76.70;;;;;;5045313;27;88063;-39
2022/11/29 06:14:37;;;;;;;;;;;2.70;76.70;;;;;;5042733;28;87092;-38
2022/11/29 06:17:14;;;;;;;;;;;2.70;76.60;;;;;;5042042;28;88762;-39
2022/11/29 06:20:07;;;;;;;;;;;2.70;76.70;;;;;;5042564;28;88047;-39
2022/11/29 06:22:33;;;;;;;;;;;2.70;76.70;;;;;;5042692;27;87011;-38
2022/11/29 06:25:15;;;;;;;;;;;2.60;76.80;;;;;;5042677;27;88578;-38
2022/11/29 06:27:58;;;;;;;;;;;2.70;76.70;;;;;;5042476;28;89291;-39
2022/11/29 06:30:41;;;;;;;;;;;2.70;76.80;;;;;;5040876;28;87146;-38
2022/11/29 06:33:12;;;;;;;;;;;2.70;76.60;;;;;;5042479;27;88480;-38
2022/11/29 06:35:47;;;;;;;;;;;2.70;76.90;;;;;;5045459;28;87719;-38
2022/11/29 06:38:20;;;;;;;;;;;2.70;76.70;;;;;;5042659;27;88045;-38
2022/11/29 06:40:45;;;;;;;;;;;2.70;76.70;;;;;;5041994;28;89316;-38
2022/11/29 06:43:11;;;;;;;;;;;2.60;77.00;;;;;;5041516;28;87983;-39
2022/11/29 06:45:38;;;;;;;;;;;2.60;77.00;;;;;;5041585;27;91940;-38
2022/11/29 06:48:05;;;;;;;;;;;2.60;76.80;;;;;;5041979;28;88371;-39
2022/11/29 06:50:30;;;;;;;;;;;2.60;76.80;;;;;;5042172;28;87040;-39
2022/11/29 06:53:02;;;;;;;;;;;2.60;76.90;;;;;;5042070;28;88698;-39
2022/11/29 06:55:37;;;;;;;;;;;2.60;76.90;;;;;;5041728;28;89608;-39
2022/11/29 06:58:17;;;;;;;;;;;2.60;77.00;;;;;;5045240;28;87088;-39
2022/11/29 07:00:58;;;;;;;;;;;2.60;77.20;;;;;;5042343;28;88654;-39
2022/11/29 07:03:31;;;;;;;;;;;2.60;77.00;;;;;;5042362;28;87113;-39
2022/11/29 07:05:56;;;;;;;;;;;2.60;76.80;;;;;;5042350;28;87280;-39
2022/11/29 07:08:22;;;;;;;;;;;2.60;76.80;;;;;;5041018;28;88880;-39
2022/11/29 07:10:49;;;;;;;;;;;2.60;77.10;;;;;;5042039;28;87229;-39
2022/11/29 07:13:15;;;;;;;;;;;2.60;77.10;;;;;;5041899;28;88870;-38
2022/11/29 07:15:46;;;;;;;;;;;2.50;77.30;;;;;;5041482;28;89828;-39
2022/11/29 07:18:16;;;;;;;;;;;2.60;77.20;;;;;;5044685;28;87100;-39
2022/11/29 07:20:54;;;;;;;;;;;2.60;76.90;;;;;;5041321;28;89439;-39
2022/11/29 07:23:40;;;;;;;;;;;2.60;76.90;;;;;;5041892;28;87028;-39
2022/11/29 07:26:38;;;;;;;;;;;2.60;77.10;;;;;;5041845;28;87422;-39
2022/11/29 07:29:15;;;;;;;;;;;2.50;77.20;;;;;;5016995;28;89256;-39
2022/11/29 07:31:41;;;;;;;;;;;2.60;77.30;;;;;;5041717;28;87089;-39
2022/11/29 07:34:15;;;;;;;;;;;2.60;77.00;;;;;;5042986;27;88816;-38
2022/11/29 07:36:50;;;;;;;;;;;2.60;77.20;;;;;;5044605;28;89570;-39
2022/11/29 07:39:23;;;;;;;;;;;2.60;77.20;;;;;;5045213;28;87137;-39
2022/11/29 07:41:52;;;;;;;;;;;2.60;77.20;;;;;;5047850;27;88371;-39
2022/11/29 07:44:23;;;;;;;;;;;2.50;77.30;;;;;;5044576;28;87140;-39
2022/11/29 07:46:48;;;;;;;;;;;2.50;77.40;;;;;;5045273;27;88528;-39
2022/11/29 07:49:14;;;;;;;;;;;2.50;77.60;;;;;;5044623;28;88616;-39
2022/11/29 07:51:39;;;;;;;;;;;2.50;77.60;;;;;;5045297;28;86536;-39
2022/11/29 07:54:06;;;;;;;;;;;2.50;77.50;;;;;;5045306;27;88008;-39
2022/11/29 07:56:31;;;;;;;;;;;2.50;77.40;;;;;;5044598;28;88301;-39
2022/11/29 07:58:57;;;;;;;;;;;2.60;77.40;;;;;;5044121;28;87986;-39
2022/11/29 08:01:22;;;;;;;;;;;2.60;77.30;;;;;;5044582;28;87308;-39
2022/11/29 08:03:48;;;;;;;;;;;2.60;77.50;;;;;;5047211;28;89226;-39
2022/11/29 08:06:13;;;;;;;;;;;2.60;77.50;;;;;;5044696;28;89302;-39
2022/11/29 08:08:39;;;;;;;;;;;2.60;77.30;;;;;;5043953;28;89649;-39
2022/11/29 08:11:09;;;;;;;;;;;2.50;77.50;;;;;;5044583;28;87111;-39
2022/11/29 08:13:35;;;;;;;;;;;2.50;77.50;;;;;;5044420;27;89014;-38
2022/11/29 08:16:00;;;;;;;;;;;2.60;77.40;;;;;;5044597;28;88613;-39
2022/11/29 08:18:26;;;;;;;;;;;2.50;77.50;;;;;;5044945;28;87092;-39
2022/11/29 08:20:51;;;;;;;;;;;2.50;77.60;;;;;;5044442;27;88606;-39
2022/11/29 08:23:16;;;;;;;;;;;2.60;77.50;;;;;;5043542;28;88278;-39
2022/11/29 08:25:42;;;;;;;;;;;2.50;77.50;;;;;;5047129;28;87109;-39
2022/11/29 08:28:08;;;;;;;;;;;2.50;77.50;;;;;;5044011;28;89388;-39
2022/11/29 08:30:33;;;;;;;;;;;2.50;77.50;;;;;;5044316;28;87286;-39
2022/11/29 08:32:59;;;;;;;;;;;2.60;77.90;;;;;;5044321;28;88903;-39
2022/11/29 08:35:24;;;;;;;;;;;2.60;77.60;;;;;;5043724;28;88844;-39
2022/11/29 08:37:50;;;;;;;;;;;2.60;77.50;;;;;;5044270;28;87165;-39
2022/11/29 08:40:16;;;;;;;;;;;2.60;77.50;;;;;;5044540;27;87347;-39
2022/11/29 08:42:41;;;;;;;;;;;2.50;77.70;;;;;;5043714;28;89943;-39
2022/11/29 08:45:08;;;;;;;;;;;2.50;77.70;;;;;;5042429;27;87112;-39
2022/11/29 08:47:37;;;;;;;;;;;2.50;77.70;;;;;;5045964;28;88796;-39
2022/11/29 08:50:10;;;;;;;;;;;2.50;77.80;;;;;;5043987;28;86982;-39
2022/11/29 08:55:26;;;;;;;;;;;2.50;77.90;;;;;;5041753;28;87277;-39
2022/11/29 08:57:53;;;;;;;;;;;2.50;77.80;;;;;;5043999;28;87155;-38
2022/11/29 09:00:22;;;;;;;;;;;2.50;77.70;;;;;;5043721;27;88983;-38
2022/11/29 09:02:47;;;;;;;;;;;2.60;77.80;;;;;;5043452;28;89685;-38
2022/11/29 09:05:14;;;;;;;;;;;2.50;77.70;;;;;;5043897;28;86479;-38
2022/11/29 09:07:39;;;;;;;;;;;2.50;77.80;;;;;;5043677;27;87261;-38
2022/11/29 09:10:07;;;;;;;;;;;2.60;77.90;;;;;;5046212;28;89339;-38
2022/11/29 09:12:35;;;;;;;;;;;2.60;77.70;;;;;;5042882;27;88716;-38
2022/11/29 09:15:03;;;;;;;;;;;2.60;77.80;;;;;;5043266;28;89900;-38
2022/11/29 09:17:29;;;;;;;;;;;2.60;77.90;;;;;;5043650;28;87114;-39
2022/11/29 09:19:54;;;;;;;;;;;2.60;78.00;;;;;;5043517;28;88007;-39
2022/11/29 09:22:20;;;;;;;;;;;2.60;78.00;;;;;;5043111;28;89779;-39
2022/11/29 09:24:45;;;;;;;;;;;2.50;78.00;;;;;;5043385;28;87125;-39
2022/11/29 09:27:11;;;;;;;;;;;2.50;78.00;;;;;;5043472;28;89046;-39
2022/11/29 09:29:37;;;;;;;;;;;2.60;78.10;;;;;;5046781;28;87202;-39
2022/11/29 09:32:03;;;;;;;;;;;2.60;78.10;;;;;;5043253;27;88068;-39
2022/11/29 09:34:28;;;;;;;;;;;2.60;78.20;;;;;;5042604;28;89464;-39
2022/11/29 09:36:54;;;;;;;;;;;2.60;78.20;;;;;;5042872;28;88374;-39
2022/11/29 09:39:19;;;;;;;;;;;2.60;78.10;;;;;;5043192;27;89716;-39
2022/11/29 09:41:54;;;;;;;;;;;2.60;78.30;;;;;;5042802;28;89695;-39
2022/11/29 09:44:34;;;;;;;;;;;2.60;78.30;;;;;;5042822;28;87128;-39
2022/11/29 09:47:10;;;;;;;;;;;2.50;78.30;;;;;;5042962;28;88964;-39
2022/11/29 09:49:36;;;;;;;;;;;2.60;78.50;;;;;;5042984;28;89724;-39
2022/11/29 09:52:12;;;;;;;;;;;2.50;78.40;;;;;;5046142;28;87011;-39
2022/11/29 09:54:58;;;;;;;;;;;2.60;78.50;;;;;;5043267;28;88811;-39
2022/11/29 09:57:25;;;;;;;;;;;2.60;78.60;;;;;;5042487;27;87149;-39
2022/11/29 09:59:57;;;;;;;;;;;2.60;78.60;;;;;;5043175;28;87076;-39
2022/11/29 10:02:36;;;;;;;;;;;2.60;78.60;;;;;;5041608;28;90303;-38
2022/11/29 10:05:07;;;;;;;;;;;2.60;78.60;;;;;;5042754;28;87195;-39
2022/11/29 10:07:42;;;;;;;;;;;2.60;78.70;;;;;;5042920;28;88640;-39
2022/11/29 10:10:12;;;;;;;;;;;2.50;78.70;;;;;;5042317;28;89642;-39
2022/11/29 10:12:38;;;;;;;;;;;2.50;78.80;;;;;;5042662;28;87089;-38
2022/11/29 10:15:23;;;;;;;;;;;2.50;78.80;;;;;;5045352;27;89205;-38
2022/11/29 10:17:52;;;;;;;;;;;2.50;78.80;;;;;;5042633;28;87225;-38
2022/11/29 10:20:19;;;;;;;;;;;2.60;78.90;;;;;;5042892;27;88783;-38
2022/11/29 10:22:52;;;;;;;;;;;2.60;78.90;;;;;;5042155;28;89375;-39
2022/11/29 10:25:23;;;;;;;;;;;2.50;78.80;;;;;;5041203;28;87157;-38
2022/11/29 10:27:49;;;;;;;;;;;2.50;78.90;;;;;;5042100;27;88830;-39
2022/11/29 10:30:15;;;;;;;;;;;2.60;79.00;;;;;;5042059;28;89195;-38
2022/11/29 10:32:42;;;;;;;;;;;2.60;78.80;;;;;;5042337;28;87138;-38
2022/11/29 10:35:16;;;;;;;;;;;2.60;78.80;;;;;;5042159;27;88792;-38
2022/11/29 10:37:42;;;;;;;;;;;2.60;78.90;;;;;;5045151;28;88793;-38
2022/11/29 10:40:18;;;;;;;;;;;2.60;79.00;;;;;;5042529;27;87082;-38
2022/11/29 10:42:53;;;;;;;;;;;2.60;78.80;;;;;;5041976;28;89626;-38
2022/11/29 10:45:28;;;;;;;;;;;2.60;78.90;;;;;;5042614;28;86333;-39
2022/11/29 10:47:55;;;;;;;;;;;2.60;79.00;;;;;;5042456;27;88041;-38
2022/11/29 10:50:28;;;;;;;;;;;2.60;79.10;;;;;;5041787;28;88649;-38
2022/11/29 10:52:54;;;;;;;;;;;2.60;79.10;;;;;;5041641;28;88017;-38
2022/11/29 10:55:20;;;;;;;;;;;2.60;79.00;;;;;;5042169;28;89637;-39
2022/11/29 10:58:05;;;;;;;;;;;2.60;79.20;;;;;;5041906;28;88709;-39
2022/11/29 11:00:41;;;;;;;;;;;2.60;79.10;;;;;;5045111;27;87118;-39
2022/11/29 11:03:32;;;;;;;;;;;2.60;79.20;;;;;;5042113;28;87281;-39
2022/11/29 11:06:00;;;;;;;;;;;2.60;79.10;;;;;;5039292;28;87587;-39
2022/11/29 11:08:27;;;;;;;;;;;2.60;79.10;;;;;;5043139;27;88697;-39
2022/11/29 11:10:54;;;;;;;;;;;2.60;79.10;;;;;;5045583;28;88238;-39
2022/11/29 11:13:21;;;;;;;;;;;2.60;79.00;;;;;;5045489;28;87543;-39
2022/11/29 11:15:47;;;;;;;;;;;2.60;79.20;;;;;;5045519;28;89039;-39
2022/11/29 11:18:22;;;;;;;;;;;2.60;79.20;;;;;;5044777;28;88863;-39
2022/11/29 11:20:52;;;;;;;;;;;2.60;79.30;;;;;;5045442;28;86930;-39
2022/11/29 11:23:24;;;;;;;;;;;2.60;79.30;;;;;;5047830;27;88806;-39
2022/11/29 11:25:55;;;;;;;;;;;2.60;79.30;;;;;;5045400;28;87091;-39
2022/11/29 11:28:22;;;;;;;;;;;2.60;79.40;;;;;;5045482;27;88974;-39
2022/11/29 11:30:53;;;;;;;;;;;2.60;79.30;;;;;;5044891;28;89736;-39
2022/11/29 11:33:21;;;;;;;;;;;2.60;79.40;;;;;;5045527;28;87118;-39
2022/11/29 11:36:05;;;;;;;;;;;2.60;79.30;;;;;;5045428;27;88772;-39
2022/11/29 11:38:31;;;;;;;;;;;2.60;79.30;;;;;;5044620;27;89223;-39
2022/11/29 11:41:20;;;;;;;;;;;2.60;79.30;;;;;;5044877;28;87213;-38
2022/11/29 11:43:50;;;;;;;;;;;2.60;79.40;;;;;;5040998;28;88129;-39
2022/11/29 11:46:16;;;;;;;;;;;2.60;79.40;;;;;;5044617;28;86968;-39
2022/11/29 11:48:41;;;;;;;;;;;2.60;79.40;;;;;;5044992;27;88588;-39
2022/11/29 11:51:14;;;;;;;;;;;2.60;79.40;;;;;;5044949;28;89692;-38
2022/11/29 11:53:39;;;;;;;;;;;2.60;79.40;;;;;;5044928;28;86943;-38
2022/11/29 11:56:06;;;;;;;;;;;2.60;79.40;;;;;;5044881;27;89553;-38
2022/11/29 11:58:37;;;;;;;;;;;2.60;79.40;;;;;;5044313;27;90093;-39
2022/11/29 12:01:14;;;;;;;;;;;2.60;79.30;;;;;;5045249;28;86447;-39
2022/11/29 12:03:39;;;;;;;;;;;2.60;79.40;;;;;;5044597;27;88097;-39
2022/11/29 12:06:12;;;;;;;;;;;2.60;79.40;;;;;;5047426;28;89814;-39
2022/11/29 12:08:38;;;;;;;;;;;2.70;79.40;;;;;;5044258;27;88974;-38
2022/11/29 12:11:05;;;;;;;;;;;2.60;79.30;;;;;;5044382;28;88592;-38
2022/11/29 12:13:32;;;;;;;;;;;2.70;79.40;;;;;;5044500;28;87117;-38
2022/11/29 12:15:59;;;;;;;;;;;2.70;79.40;;;;;;5044684;28;88913;-39
2022/11/29 12:18:25;;;;;;;;;;;2.60;79.40;;;;;;5044229;28;89105;-39
2022/11/29 12:20:55;;;;;;;;;;;2.70;79.50;;;;;;5044214;27;87116;-39
2022/11/29 12:23:39;;;;;;;;;;;2.60;79.40;;;;;;5044566;27;87897;-39
2022/11/29 12:26:11;;;;;;;;;;;2.70;79.50;;;;;;5044588;28;88619;-39
2022/11/29 12:28:40;;;;;;;;;;;2.70;79.40;;;;;;5047469;28;87082;-38
2022/11/29 12:31:13;;;;;;;;;;;2.70;79.50;;;;;;5043971;28;88629;-38
2022/11/29 12:33:48;;;;;;;;;;;2.70;79.50;;;;;;5043680;28;88436;-39
2022/11/29 12:36:26;;;;;;;;;;;2.70;79.50;;;;;;5043906;27;89624;-39
2022/11/29 12:39:00;;;;;;;;;;;2.70;79.50;;;;;;5044115;28;87967;-39
2022/11/29 12:41:25;;;;;;;;;;;2.70;79.40;;;;;;5044094;28;88219;-39
2022/11/29 12:43:55;;;;;;;;;;;2.70;79.50;;;;;;5044462;28;87190;-39
2022/11/29 12:46:21;;;;;;;;;;;2.70;79.50;;;;;;5043344;28;89426;-39
2022/11/29 12:48:47;;;;;;;;;;;2.70;79.50;;;;;;5043835;28;87000;-39
2022/11/29 12:51:31;;;;;;;;;;;2.70;79.50;;;;;;5046924;27;88385;-39
2022/11/29 12:54:15;;;;;;;;;;;2.70;79.50;;;;;;5043918;27;87084;-39
2022/11/29 12:56:46;;;;;;;;;;;2.70;79.50;;;;;;5044065;27;88757;-39
2022/11/29 12:59:30;;;;;;;;;;;2.70;79.50;;;;;;5041274;28;92363;-39
2022/11/29 13:02:14;;;;;;;;;;;2.70;79.50;;;;;;5043551;28;87051;-39
2022/11/29 13:04:50;;;;;;;;;;;2.70;79.50;;;;;;5043898;27;88804;-39
2022/11/29 13:07:28;;;;;;;;;;;2.70;79.50;;;;;;5043648;28;89279;-39
2022/11/29 13:09:57;;;;;;;;;;;2.70;79.60;;;;;;5043659;28;87100;-39
2022/11/29 13:12:26;;;;;;;;;;;2.70;79.50;;;;;;5043830;27;88954;-39
2022/11/29 13:14:59;;;;;;;;;;;2.70;79.50;;;;;;5046138;28;89304;-38
2022/11/29 13:17:43;;;;;;;;;;;2.70;79.60;;;;;;5043999;27;88632;-38
2022/11/29 13:20:09;;;;;;;;;;;2.70;79.70;;;;;;5043117;27;90099;-38
2022/11/29 13:22:34;;;;;;;;;;;2.70;79.70;;;;;;5043495;28;87013;-38
2022/11/29 13:25:02;;;;;;;;;;;2.70;79.70;;;;;;5042792;27;88561;-39
2022/11/29 13:27:29;;;;;;;;;;;2.70;79.60;;;;;;5043291;28;88184;-39
2022/11/29 13:29:55;;;;;;;;;;;2.70;79.70;;;;;;5043650;28;86902;-39
2022/11/29 13:32:43;;;;;;;;;;;2.70;79.60;;;;;;5042927;27;86967;-39
2022/11/29 13:35:21;;;;;;;;;;;2.70;79.60;;;;;;5043276;28;88102;-39
2022/11/29 13:37:49;;;;;;;;;;;2.70;79.70;;;;;;5046106;28;87161;-39
2022/11/29 13:40:17;;;;;;;;;;;2.70;79.60;;;;;;5042823;28;88249;-39
2022/11/29 13:42:45;;;;;;;;;;;2.80;79.70;;;;;;5043910;28;86403;-39
2022/11/29 13:45:20;;;;;;;;;;;2.80;79.70;;;;;;5042490;27;88021;-39
2022/11/29 13:47:47;;;;;;;;;;;2.70;79.60;;;;;;5042883;28;89242;-39
2022/11/29 13:50:31;;;;;;;;;;;2.80;79.70;;;;;;5042675;28;88106;-39
2022/11/29 13:53:04;;;;;;;;;;;2.80;79.60;;;;;;5042891;27;90088;-39
2022/11/29 13:55:30;;;;;;;;;;;2.80;79.70;;;;;;5042745;28;88324;-39
2022/11/29 13:58:07;;;;;;;;;;;2.80;79.50;;;;;;5045722;28;87194;-39
2022/11/29 14:00:41;;;;;;;;;;;2.80;79.60;;;;;;5042598;28;89762;-39
2022/11/29 14:03:22;;;;;;;;;;;2.80;79.60;;;;;;5042581;28;87225;-39
2022/11/29 14:06:08;;;;;;;;;;;2.80;79.60;;;;;;5042783;28;88802;-38
2022/11/29 14:08:52;;;;;;;;;;;2.80;79.60;;;;;;4999752;28;88505;-39
2022/11/29 14:11:23;;;;;;;;;;;2.80;79.70;;;;;;5040882;28;86893;-39
2022/11/29 14:14:08;;;;;;;;;;;2.80;79.70;;;;;;5042643;27;88724;-39
2022/11/29 14:16:38;;;;;;;;;;;2.80;79.80;;;;;;5041689;28;90098;-39
2022/11/29 14:19:09;;;;;;;;;;;2.80;79.80;;;;;;5042619;28;86972;-38
2022/11/29 14:21:53;;;;;;;;;;;2.80;79.80;;;;;;5045201;28;88362;-38
2022/11/29 14:24:31;;;;;;;;;;;2.80;79.80;;;;;;5042683;27;87150;-39
2022/11/29 14:27:19;;;;;;;;;;;2.80;79.80;;;;;;5042427;28;88876;-39
2022/11/29 14:32:35;;;;;;;;;;;2.80;79.80;;;;;;5042851;28;87088;-39
2022/11/29 14:35:10;;;;;;;;;;;2.80;79.80;;;;;;5042851;27;88045;-38
2022/11/29 14:37:39;;;;;;;;;;;2.80;79.80;;;;;;5041549;28;89262;-38
2022/11/29 14:40:17;;;;;;;;;;;2.80;79.70;;;;;;5042588;28;86961;-38
2022/11/29 14:42:46;;;;;;;;;;;2.80;79.70;;;;;;5041819;27;87866;-38
2022/11/29 14:45:24;;;;;;;;;;;2.80;79.70;;;;;;5047971;28;89405;-39
2022/11/29 14:47:50;;;;;;;;;;;2.80;79.80;;;;;;5046012;28;88371;-39
2022/11/29 14:50:32;;;;;;;;;;;2.80;79.80;;;;;;5045512;28;89507;-39
2022/11/29 14:52:58;;;;;;;;;;;2.80;79.80;;;;;;5045976;28;87099;-39
2022/11/29 14:55:23;;;;;;;;;;;2.90;79.80;;;;;;5046126;28;87122;-39
2022/11/29 14:57:49;;;;;;;;;;;2.80;79.80;;;;;;5045656;28;88477;-39
2022/11/29 15:00:22;;;;;;;;;;;2.80;79.70;;;;;;5046490;28;86545;-39